sensor_id;sensor_type;location;lat;lon;timestamp;pressure;altitude;pressure_sealevel;temperature;humidity
78590;BME280;67888;50.228;7.828;2024-01-06T00:00:00;97832.50;;;10.17;100.00
78590;BME280;67888;50.228;7.828;2024-01-06T00:05:01;97831.41;;;9.96;100.00
78590;BME280;67888;50.228;7.828;2024-01-06T00:10:01;97831.22;;;9.92;100.00
78590;BME280;67888;50.228;7.828;2024-01-06T00:15:02;97839.59;;;9.94;100.00
78590;BME280;67888;50.228;7.828;2024-01-06T00:20:03;97844.94;;;10.39;100.00
78590;BME280;67888;50.228;7.828;2024-01-06T00:25:05;97841.66;;;10.33;100.00
78590;BME280;67888;50.228;7.828;2024-01-06T00:30:06;97848.56;;;9.80;100.00
78590;BME280;67888;50.228;7.828;2024-01-06T00:35:07;97850.66;;;10.41;100.00
78590;BME280;67888;50.228;7.828;2024-01-06T00:40:08;97850.91;;;10.31;100.00
78590;BME280;67888;50.228;7.828;2024-01-06T00:45:09;97856.38;;;10.57;100.00
78590;BME280;67888;50.228;7.828;2024-01-06T00:50:10;97853.97;;;10.69;100.00
78590;BME280;67888;50.228;7.828;2024-01-06T00:55:10;97847.97;;;10.99;100.00
78590;BME280;67888;50.228;7.828;2024-01-06T01:00:12;97858.69;;;10.58;100.00
78590;BME280;67888;50.228;7.828;2024-01-06T01:05:13;97858.66;;;11.34;100.00
78590;BME280;67888;50.228;7.828;2024-01-06T01:10:13;97865.66;;;10.18;100.00
78590;BME280;67888;50.228;7.828;2024-01-06T01:15:14;97870.03;;;10.90;100.00
78590;BME280;67888;50.228;7.828;2024-01-06T01:20:14;97873.22;;;10.78;100.00
78590;BME280;67888;50.228;7.828;2024-01-06T01:25:15;97872.09;;;10.70;100.00
78590;BME280;67888;50.228;7.828;2024-01-06T01:30:15;97879.88;;;10.75;100.00
78590;BME280;67888;50.228;7.828;2024-01-06T01:35:16;97878.84;;;10.63;100.00
78590;BME280;67888;50.228;7.828;2024-01-06T01:40:17;97884.53;;;10.20;100.00
78590;BME280;67888;50.228;7.828;2024-01-06T01:45:17;97893.28;;;11.19;100.00
78590;BME280;67888;50.228;7.828;2024-01-06T01:50:18;97903.16;;;11.13;100.00
78590;BME280;67888;50.228;7.828;2024-01-06T01:55:20;97910.13;;;10.87;100.00
78590;BME280;67888;50.228;7.828;2024-01-06T02:00:20;97914.94;;;10.49;100.00
78590;BME280;67888;50.228;7.828;2024-01-06T02:05:21;97916.34;;;10.32;100.00
78590;BME280;67888;50.228;7.828;2024-01-06T02:10:22;97921.00;;;10.71;100.00
78590;BME280;67888;50.228;7.828;2024-01-06T02:15:22;97923.22;;;11.00;100.00
78590;BME280;67888;50.228;7.828;2024-01-06T02:20:23;97925.06;;;11.22;100.00
78590;BME280;67888;50.228;7.828;2024-01-06T02:25:25;97939.13;;;10.95;100.00
78590;BME280;67888;50.228;7.828;2024-01-06T02:30:25;97939.81;;;10.29;100.00
78590;BME280;67888;50.228;7.828;2024-01-06T02:35:25;97944.50;;;10.90;100.00
78590;BME280;67888;50.228;7.828;2024-01-06T02:40:26;97947.97;;;10.27;100.00
78590;BME280;67888;50.228;7.828;2024-01-06T02:45:26;97950.91;;;10.98;100.00
78590;BME280;67888;50.228;7.828;2024-01-06T02:50:27;97964.47;;;10.91;100.00
78590;BME280;67888;50.228;7.828;2024-01-06T02:55:27;97956.75;;;11.39;100.00
78590;BME280;67888;50.228;7.828;2024-01-06T03:00:28;97964.63;;;10.50;100.00
78590;BME280;67888;50.228;7.828;2024-01-06T03:05:28;97974.41;;;10.94;100.00
78590;BME280;67888;50.228;7.828;2024-01-06T03:10:29;97970.38;;;10.38;100.00
78590;BME280;67888;50.228;7.828;2024-01-06T03:15:29;97977.13;;;10.67;100.00
78590;BME280;67888;50.228;7.828;2024-01-06T03:20:30;97970.94;;;11.52;100.00
78590;BME280;67888;50.228;7.828;2024-01-06T03:25:30;97975.38;;;10.76;100.00
78590;BME280;67888;50.228;7.828;2024-01-06T03:30:30;97964.00;;;11.11;100.00
78590;BME280;67888;50.228;7.828;2024-01-06T03:35:31;97969.88;;;10.86;100.00
78590;BME280;67888;50.228;7.828;2024-01-06T03:40:31;97978.59;;;11.18;100.00
78590;BME280;67888;50.228;7.828;2024-01-06T03:45:32;97980.53;;;11.26;100.00
78590;BME280;67888;50.228;7.828;2024-01-06T03:50:32;97981.44;;;10.63;100.00
78590;BME280;67888;50.228;7.828;2024-01-06T03:55:33;97990.25;;;10.81;100.00
78590;BME280;67888;50.228;7.828;2024-01-06T04:00:33;97995.53;;;11.03;100.00
78590;BME280;67888;50.228;7.828;2024-01-06T04:05:34;98000.25;;;10.92;100.00
78590;BME280;67888;50.228;7.828;2024-01-06T04:10:34;98003.78;;;11.32;100.00
78590;BME280;67888;50.228;7.828;2024-01-06T04:15:35;98002.59;;;11.38;100.00
78590;BME280;67888;50.228;7.828;2024-01-06T04:20:35;97993.53;;;11.53;100.00
78590;BME280;67888;50.228;7.828;2024-01-06T04:25:37;98001.34;;;11.36;100.00
78590;BME280;67888;50.228;7.828;2024-01-06T04:30:37;98000.84;;;10.89;100.00
78590;BME280;67888;50.228;7.828;2024-01-06T04:35:38;98009.84;;;11.33;100.00
78590;BME280;67888;50.228;7.828;2024-01-06T04:40:38;98004.03;;;11.22;100.00
78590;BME280;67888;50.228;7.828;2024-01-06T04:45:38;97997.84;;;10.32;100.00
78590;BME280;67888;50.228;7.828;2024-01-06T04:50:39;97999.91;;;11.30;100.00
78590;BME280;67888;50.228;7.828;2024-01-06T04:55:39;97997.16;;;11.12;100.00
78590;BME280;67888;50.228;7.828;2024-01-06T05:00:40;97998.44;;;10.79;100.00
78590;BME280;67888;50.228;7.828;2024-01-06T05:05:40;98002.53;;;11.07;100.00
78590;BME280;67888;50.228;7.828;2024-01-06T05:10:41;97996.56;;;10.80;100.00
78590;BME280;67888;50.228;7.828;2024-01-06T05:15:42;98012.47;;;11.33;100.00
78590;BME280;67888;50.228;7.828;2024-01-06T05:20:43;98017.66;;;10.66;100.00
78590;BME280;67888;50.228;7.828;2024-01-06T05:25:43;98020.13;;;10.98;100.00
78590;BME280;67888;50.228;7.828;2024-01-06T05:30:44;98021.03;;;11.16;100.00
78590;BME280;67888;50.228;7.828;2024-01-06T05:35:44;98019.97;;;11.39;100.00
78590;BME280;67888;50.228;7.828;2024-01-06T05:40:45;98021.19;;;11.42;100.00
78590;BME280;67888;50.228;7.828;2024-01-06T05:45:45;98030.91;;;11.33;100.00
78590;BME280;67888;50.228;7.828;2024-01-06T05:50:46;98036.84;;;11.38;100.00
78590;BME280;67888;50.228;7.828;2024-01-06T05:55:46;98038.50;;;11.34;100.00
78590;BME280;67888;50.228;7.828;2024-01-06T06:00:47;98038.38;;;11.17;100.00
78590;BME280;67888;50.228;7.828;2024-01-06T06:05:47;98047.38;;;11.38;100.00
78590;BME280;67888;50.228;7.828;2024-01-06T06:10:48;98054.66;;;11.41;100.00
78590;BME280;67888;50.228;7.828;2024-01-06T06:16:11;98061.13;;;11.35;100.00
78590;BME280;67888;50.228;7.828;2024-01-06T06:21:14;98064.94;;;11.07;100.00
78590;BME280;67888;50.228;7.828;2024-01-06T06:26:15;98064.63;;;10.59;100.00
78590;BME280;67888;50.228;7.828;2024-01-06T06:31:16;98065.00;;;10.80;100.00
78590;BME280;67888;50.228;7.828;2024-01-06T06:36:16;98069.81;;;11.13;100.00
78590;BME280;67888;50.228;7.828;2024-01-06T06:41:17;98076.25;;;11.07;100.00
78590;BME280;67888;50.228;7.828;2024-01-06T06:46:17;98097.66;;;11.14;100.00
78590;BME280;67888;50.228;7.828;2024-01-06T06:51:17;98093.66;;;10.81;100.00
78590;BME280;67888;50.228;7.828;2024-01-06T06:56:18;98101.16;;;11.24;100.00
78590;BME280;67888;50.228;7.828;2024-01-06T07:01:18;98111.28;;;11.30;100.00
78590;BME280;67888;50.228;7.828;2024-01-06T07:06:19;98111.16;;;11.13;100.00
78590;BME280;67888;50.228;7.828;2024-01-06T07:11:20;98120.09;;;11.26;100.00
78590;BME280;67888;50.228;7.828;2024-01-06T07:16:20;98123.53;;;11.12;100.00
78590;BME280;67888;50.228;7.828;2024-01-06T07:21:21;98139.38;;;11.35;100.00
78590;BME280;67888;50.228;7.828;2024-01-06T07:26:23;98134.66;;;11.09;100.00
78590;BME280;67888;50.228;7.828;2024-01-06T07:31:24;98152.00;;;11.10;100.00
78590;BME280;67888;50.228;7.828;2024-01-06T07:36:24;98151.28;;;11.32;100.00
78590;BME280;67888;50.228;7.828;2024-01-06T07:41:24;98163.13;;;11.43;100.00
78590;BME280;67888;50.228;7.828;2024-01-06T07:46:25;98166.22;;;11.59;100.00
78590;BME280;67888;50.228;7.828;2024-01-06T07:51:26;98164.63;;;11.36;100.00
78590;BME280;67888;50.228;7.828;2024-01-06T07:56:27;98167.22;;;11.49;100.00
78590;BME280;67888;50.228;7.828;2024-01-06T08:01:27;98180.66;;;11.12;100.00
78590;BME280;67888;50.228;7.828;2024-01-06T08:06:28;98181.69;;;11.38;100.00
78590;BME280;67888;50.228;7.828;2024-01-06T08:11:28;98199.09;;;11.26;100.00
78590;BME280;67888;50.228;7.828;2024-01-06T08:16:29;98198.41;;;11.20;100.00
78590;BME280;67888;50.228;7.828;2024-01-06T08:21:30;98199.06;;;11.39;100.00
78590;BME280;67888;50.228;7.828;2024-01-06T08:26:31;98206.19;;;11.39;100.00
78590;BME280;67888;50.228;7.828;2024-01-06T08:31:32;98199.75;;;11.67;100.00
78590;BME280;67888;50.228;7.828;2024-01-06T08:36:34;98219.22;;;11.58;100.00
78590;BME280;67888;50.228;7.828;2024-01-06T08:41:35;98227.53;;;11.51;100.00
78590;BME280;67888;50.228;7.828;2024-01-06T08:46:35;98215.44;;;11.50;100.00
78590;BME280;67888;50.228;7.828;2024-01-06T08:51:36;98233.09;;;11.36;100.00
78590;BME280;67888;50.228;7.828;2024-01-06T08:56:36;98233.06;;;11.77;100.00
78590;BME280;67888;50.228;7.828;2024-01-06T09:01:38;98240.34;;;11.80;100.00
78590;BME280;67888;50.228;7.828;2024-01-06T09:06:39;98246.31;;;11.72;100.00
78590;BME280;67888;50.228;7.828;2024-01-06T09:11:39;98257.16;;;11.70;100.00
78590;BME280;67888;50.228;7.828;2024-01-06T09:16:40;98254.03;;;11.55;100.00
78590;BME280;67888;50.228;7.828;2024-01-06T09:21:40;98264.38;;;11.78;100.00
78590;BME280;67888;50.228;7.828;2024-01-06T09:26:41;98278.19;;;11.98;100.00
78590;BME280;67888;50.228;7.828;2024-01-06T09:31:42;98275.63;;;11.43;100.00
78590;BME280;67888;50.228;7.828;2024-01-06T09:36:43;98291.25;;;11.26;100.00
78590;BME280;67888;50.228;7.828;2024-01-06T09:41:44;98289.56;;;11.57;100.00
78590;BME280;67888;50.228;7.828;2024-01-06T09:46:45;98299.53;;;11.33;100.00
78590;BME280;67888;50.228;7.828;2024-01-06T09:51:48;98302.75;;;11.30;100.00
78590;BME280;67888;50.228;7.828;2024-01-06T09:56:51;98308.72;;;11.35;100.00
78590;BME280;67888;50.228;7.828;2024-01-06T10:01:53;98311.03;;;11.09;100.00
78590;BME280;67888;50.228;7.828;2024-01-06T10:06:54;98317.25;;;11.68;100.00
78590;BME280;67888;50.228;7.828;2024-01-06T10:11:56;98317.53;;;10.85;100.00
78590;BME280;67888;50.228;7.828;2024-01-06T10:17:00;98320.19;;;11.53;100.00
78590;BME280;67888;50.228;7.828;2024-01-06T10:22:00;98320.38;;;11.70;100.00
78590;BME280;67888;50.228;7.828;2024-01-06T10:27:03;98318.25;;;11.45;100.00
78590;BME280;67888;50.228;7.828;2024-01-06T10:32:04;98328.13;;;11.26;100.00
78590;BME280;67888;50.228;7.828;2024-01-06T10:37:05;98327.59;;;10.96;100.00
78590;BME280;67888;50.228;7.828;2024-01-06T10:42:06;98333.97;;;11.50;100.00
78590;BME280;67888;50.228;7.828;2024-01-06T10:47:07;98323.50;;;11.18;100.00
78590;BME280;67888;50.228;7.828;2024-01-06T10:52:09;98323.91;;;11.11;100.00
78590;BME280;67888;50.228;7.828;2024-01-06T10:57:10;98332.06;;;10.96;100.00
78590;BME280;67888;50.228;7.828;2024-01-06T11:02:12;98326.44;;;11.30;100.00
78590;BME280;67888;50.228;7.828;2024-01-06T11:07:18;98322.91;;;10.61;100.00
78590;BME280;67888;50.228;7.828;2024-01-06T11:12:20;98335.78;;;10.62;100.00
78590;BME280;67888;50.228;7.828;2024-01-06T11:22:50;98335.25;;;10.79;100.00
78590;BME280;67888;50.228;7.828;2024-01-06T11:27:50;98333.22;;;10.76;100.00
78590;BME280;67888;50.228;7.828;2024-01-06T11:32:52;98338.66;;;10.80;100.00
78590;BME280;67888;50.228;7.828;2024-01-06T11:38:00;98333.16;;;10.06;100.00
78590;BME280;67888;50.228;7.828;2024-01-06T11:43:11;98330.22;;;9.89;100.00
78590;BME280;67888;50.228;7.828;2024-01-06T11:48:17;98331.06;;;9.65;100.00
78590;BME280;67888;50.228;7.828;2024-01-06T11:53:19;98339.78;;;9.61;100.00
78590;BME280;67888;50.228;7.828;2024-01-06T11:58:20;98335.28;;;9.85;100.00
78590;BME280;67888;50.228;7.828;2024-01-06T12:03:20;98335.50;;;10.07;100.00
78590;BME280;67888;50.228;7.828;2024-01-06T12:08:21;98334.38;;;9.95;100.00
78590;BME280;67888;50.228;7.828;2024-01-06T12:13:21;98328.47;;;9.84;100.00
78590;BME280;67888;50.228;7.828;2024-01-06T12:18:22;98338.31;;;9.74;100.00
78590;BME280;67888;50.228;7.828;2024-01-06T12:23:25;98344.16;;;9.89;100.00
78590;BME280;67888;50.228;7.828;2024-01-06T12:28:28;98353.63;;;10.09;100.00
78590;BME280;67888;50.228;7.828;2024-01-06T12:33:28;98342.16;;;10.24;100.00
78590;BME280;67888;50.228;7.828;2024-01-06T12:38:31;98338.56;;;10.52;100.00
78590;BME280;67888;50.228;7.828;2024-01-06T12:43:32;98349.38;;;10.83;100.00
78590;BME280;67888;50.228;7.828;2024-01-06T12:48:32;98356.19;;;10.70;100.00
78590;BME280;67888;50.228;7.828;2024-01-06T12:53:33;98353.03;;;10.68;100.00
78590;BME280;67888;50.228;7.828;2024-01-06T12:58:33;98354.91;;;11.00;100.00
78590;BME280;67888;50.228;7.828;2024-01-06T13:03:35;98362.13;;;10.01;100.00
78590;BME280;67888;50.228;7.828;2024-01-06T13:08:35;98361.44;;;9.95;100.00
78590;BME280;67888;50.228;7.828;2024-01-06T13:13:36;98365.13;;;9.94;100.00
78590;BME280;67888;50.228;7.828;2024-01-06T13:18:37;98380.34;;;9.74;100.00
78590;BME280;67888;50.228;7.828;2024-01-06T13:23:38;98378.84;;;9.15;100.00
78590;BME280;67888;50.228;7.828;2024-01-06T13:28:41;98389.34;;;9.44;100.00
78590;BME280;67888;50.228;7.828;2024-01-06T13:33:50;98393.13;;;9.32;100.00
78590;BME280;67888;50.228;7.828;2024-01-06T13:38:52;98399.81;;;9.20;100.00
78590;BME280;67888;50.228;7.828;2024-01-06T13:43:53;98401.47;;;9.63;100.00
78590;BME280;67888;50.228;7.828;2024-01-06T13:48:54;98406.63;;;9.21;100.00
78590;BME280;67888;50.228;7.828;2024-01-06T13:53:55;98414.31;;;9.65;100.00
78590;BME280;67888;50.228;7.828;2024-01-06T13:58:55;98422.66;;;9.19;100.00
78590;BME280;67888;50.228;7.828;2024-01-06T14:03:56;98428.53;;;8.72;100.00
78590;BME280;67888;50.228;7.828;2024-01-06T14:09:00;98436.41;;;8.72;100.00
78590;BME280;67888;50.228;7.828;2024-01-06T14:14:00;98430.56;;;9.14;100.00
78590;BME280;67888;50.228;7.828;2024-01-06T14:19:01;98433.88;;;8.96;100.00
78590;BME280;67888;50.228;7.828;2024-01-06T14:24:02;98442.72;;;9.05;100.00
78590;BME280;67888;50.228;7.828;2024-01-06T14:29:03;98453.78;;;9.31;100.00
78590;BME280;67888;50.228;7.828;2024-01-06T14:34:04;98462.19;;;9.28;100.00
78590;BME280;67888;50.228;7.828;2024-01-06T14:39:05;98466.13;;;9.30;100.00
78590;BME280;67888;50.228;7.828;2024-01-06T14:44:07;98468.91;;;9.44;100.00
78590;BME280;67888;50.228;7.828;2024-01-06T14:49:09;98477.72;;;8.90;100.00
78590;BME280;67888;50.228;7.828;2024-01-06T14:54:10;98490.59;;;8.87;100.00
78590;BME280;67888;50.228;7.828;2024-01-06T14:59:11;98495.09;;;8.81;100.00
78590;BME280;67888;50.228;7.828;2024-01-06T15:04:12;98491.28;;;9.03;100.00
78590;BME280;67888;50.228;7.828;2024-01-06T15:09:14;98492.66;;;8.95;100.00
78590;BME280;67888;50.228;7.828;2024-01-06T15:14:14;98493.50;;;8.85;100.00
78590;BME280;67888;50.228;7.828;2024-01-06T15:19:15;98493.63;;;9.38;100.00
78590;BME280;67888;50.228;7.828;2024-01-06T15:24:16;98498.06;;;9.09;100.00
78590;BME280;67888;50.228;7.828;2024-01-06T15:29:18;98502.44;;;8.84;100.00
78590;BME280;67888;50.228;7.828;2024-01-06T15:34:18;98506.94;;;9.13;100.00
78590;BME280;67888;50.228;7.828;2024-01-06T15:39:19;98508.38;;;8.95;100.00
78590;BME280;67888;50.228;7.828;2024-01-06T15:44:20;98504.84;;;8.71;100.00
78590;BME280;67888;50.228;7.828;2024-01-06T15:49:22;98514.03;;;8.73;100.00
78590;BME280;67888;50.228;7.828;2024-01-06T15:54:23;98512.06;;;8.94;100.00
78590;BME280;67888;50.228;7.828;2024-01-06T15:59:24;98518.31;;;8.49;100.00
78590;BME280;67888;50.228;7.828;2024-01-06T16:04:26;98523.94;;;8.81;100.00
78590;BME280;67888;50.228;7.828;2024-01-06T16:09:27;98529.25;;;8.66;100.00
78590;BME280;67888;50.228;7.828;2024-01-06T16:14:27;98537.50;;;8.44;100.00
78590;BME280;67888;50.228;7.828;2024-01-06T16:19:28;98539.28;;;8.59;100.00
78590;BME280;67888;50.228;7.828;2024-01-06T16:24:29;98543.97;;;8.62;100.00
78590;BME280;67888;50.228;7.828;2024-01-06T16:29:30;98537.13;;;8.66;100.00
78590;BME280;67888;50.228;7.828;2024-01-06T16:34:30;98555.50;;;8.66;100.00
78590;BME280;67888;50.228;7.828;2024-01-06T16:39:31;98545.13;;;8.31;100.00
78590;BME280;67888;50.228;7.828;2024-01-06T16:44:31;98554.44;;;8.67;100.00
78590;BME280;67888;50.228;7.828;2024-01-06T16:49:32;98558.06;;;7.97;100.00
78590;BME280;67888;50.228;7.828;2024-01-06T16:54:32;98567.19;;;8.09;100.00
78590;BME280;67888;50.228;7.828;2024-01-06T16:59:33;98563.75;;;8.34;100.00
78590;BME280;67888;50.228;7.828;2024-01-06T17:04:34;98568.44;;;8.47;100.00
78590;BME280;67888;50.228;7.828;2024-01-06T17:09:35;98572.16;;;8.21;100.00
78590;BME280;67888;50.228;7.828;2024-01-06T17:14:36;98566.56;;;8.53;100.00
78590;BME280;67888;50.228;7.828;2024-01-06T17:19:37;98577.31;;;8.56;100.00
78590;BME280;67888;50.228;7.828;2024-01-06T17:24:38;98577.09;;;8.43;100.00
78590;BME280;67888;50.228;7.828;2024-01-06T17:29:38;98588.06;;;8.50;100.00
78590;BME280;67888;50.228;7.828;2024-01-06T17:34:38;98596.97;;;8.59;100.00
78590;BME280;67888;50.228;7.828;2024-01-06T17:39:39;98588.63;;;8.26;100.00
78590;BME280;67888;50.228;7.828;2024-01-06T17:44:39;98608.06;;;8.36;100.00
78590;BME280;67888;50.228;7.828;2024-01-06T17:49:45;98613.59;;;8.93;100.00
78590;BME280;67888;50.228;7.828;2024-01-06T17:54:45;98612.66;;;8.69;100.00
78590;BME280;67888;50.228;7.828;2024-01-06T17:59:46;98617.00;;;8.99;100.00
78590;BME280;67888;50.228;7.828;2024-01-06T18:04:46;98617.94;;;8.49;100.00
78590;BME280;67888;50.228;7.828;2024-01-06T18:09:47;98623.38;;;8.83;100.00
78590;BME280;67888;50.228;7.828;2024-01-06T18:14:47;98632.09;;;8.58;100.00
78590;BME280;67888;50.228;7.828;2024-01-06T18:19:48;98628.72;;;8.42;100.00
78590;BME280;67888;50.228;7.828;2024-01-06T18:24:48;98634.19;;;8.56;100.00
78590;BME280;67888;50.228;7.828;2024-01-06T18:29:49;98635.25;;;8.55;100.00
78590;BME280;67888;50.228;7.828;2024-01-06T18:34:49;98633.19;;;8.47;100.00
78590;BME280;67888;50.228;7.828;2024-01-06T18:39:50;98643.41;;;8.28;100.00
78590;BME280;67888;50.228;7.828;2024-01-06T18:44:50;98636.81;;;8.51;100.00
78590;BME280;67888;50.228;7.828;2024-01-06T18:49:51;98640.50;;;8.60;100.00
78590;BME280;67888;50.228;7.828;2024-01-06T18:54:52;98640.50;;;8.50;100.00
78590;BME280;67888;50.228;7.828;2024-01-06T18:59:52;98655.47;;;8.44;100.00
78590;BME280;67888;50.228;7.828;2024-01-06T19:04:54;98649.69;;;8.42;100.00
78590;BME280;67888;50.228;7.828;2024-01-06T19:09:55;98656.75;;;8.57;100.00
78590;BME280;67888;50.228;7.828;2024-01-06T19:14:55;98658.84;;;8.55;100.00
78590;BME280;67888;50.228;7.828;2024-01-06T19:19:56;98667.81;;;7.93;100.00
78590;BME280;67888;50.228;7.828;2024-01-06T19:24:57;98671.97;;;8.60;100.00
78590;BME280;67888;50.228;7.828;2024-01-06T19:29:57;98672.53;;;8.21;100.00
78590;BME280;67888;50.228;7.828;2024-01-06T19:34:58;98679.34;;;7.97;100.00
78590;BME280;67888;50.228;7.828;2024-01-06T19:39:59;98673.03;;;8.18;100.00
78590;BME280;67888;50.228;7.828;2024-01-06T19:44:59;98676.19;;;7.95;100.00
78590;BME280;67888;50.228;7.828;2024-01-06T19:50:01;98679.31;;;7.87;100.00
78590;BME280;67888;50.228;7.828;2024-01-06T19:55:03;98681.16;;;8.12;100.00
78590;BME280;67888;50.228;7.828;2024-01-06T20:00:04;98686.66;;;8.41;100.00
78590;BME280;67888;50.228;7.828;2024-01-06T20:05:06;98692.69;;;8.06;100.00
78590;BME280;67888;50.228;7.828;2024-01-06T20:10:07;98697.91;;;8.01;100.00
78590;BME280;67888;50.228;7.828;2024-01-06T20:15:08;98706.47;;;7.40;100.00
78590;BME280;67888;50.228;7.828;2024-01-06T20:20:09;98707.03;;;7.58;100.00
78590;BME280;67888;50.228;7.828;2024-01-06T20:25:12;98706.53;;;7.86;100.00
78590;BME280;67888;50.228;7.828;2024-01-06T20:30:12;98714.41;;;7.71;100.00
78590;BME280;67888;50.228;7.828;2024-01-06T20:35:13;98714.91;;;7.68;100.00
78590;BME280;67888;50.228;7.828;2024-01-06T20:40:14;98711.75;;;7.66;100.00
78590;BME280;67888;50.228;7.828;2024-01-06T20:45:15;98713.25;;;7.31;100.00
78590;BME280;67888;50.228;7.828;2024-01-06T20:50:18;98717.16;;;7.29;100.00
78590;BME280;67888;50.228;7.828;2024-01-06T20:55:20;98711.63;;;7.20;100.00
78590;BME280;67888;50.228;7.828;2024-01-06T21:00:21;98714.41;;;7.81;100.00
78590;BME280;67888;50.228;7.828;2024-01-06T21:05:21;98707.03;;;7.63;100.00
78590;BME280;67888;50.228;7.828;2024-01-06T21:10:22;98720.38;;;7.51;100.00
78590;BME280;67888;50.228;7.828;2024-01-06T21:15:22;98714.97;;;8.03;100.00
78590;BME280;67888;50.228;7.828;2024-01-06T21:20:24;98721.75;;;7.84;100.00
78590;BME280;67888;50.228;7.828;2024-01-06T21:25:25;98727.75;;;7.74;100.00
78590;BME280;67888;50.228;7.828;2024-01-06T21:30:26;98715.69;;;7.63;100.00
78590;BME280;67888;50.228;7.828;2024-01-06T21:35:28;98722.72;;;7.52;100.00
78590;BME280;67888;50.228;7.828;2024-01-06T21:40:30;98723.25;;;7.54;100.00
78590;BME280;67888;50.228;7.828;2024-01-06T21:45:32;98721.03;;;7.16;100.00
78590;BME280;67888;50.228;7.828;2024-01-06T21:50:33;98730.81;;;7.41;100.00
78590;BME280;67888;50.228;7.828;2024-01-06T21:55:33;98730.00;;;7.35;100.00
78590;BME280;67888;50.228;7.828;2024-01-06T22:00:34;98736.56;;;7.48;100.00
78590;BME280;67888;50.228;7.828;2024-01-06T22:05:34;98737.09;;;7.40;100.00
78590;BME280;67888;50.228;7.828;2024-01-06T22:10:35;98743.16;;;7.61;100.00
78590;BME280;67888;50.228;7.828;2024-01-06T22:15:35;98751.72;;;7.36;100.00
78590;BME280;67888;50.228;7.828;2024-01-06T22:20:36;98750.81;;;7.77;100.00
78590;BME280;67888;50.228;7.828;2024-01-06T22:25:37;98748.59;;;7.39;100.00
78590;BME280;67888;50.228;7.828;2024-01-06T22:30:38;98742.44;;;7.03;100.00
78590;BME280;67888;50.228;7.828;2024-01-06T22:35:38;98745.25;;;7.53;100.00
78590;BME280;67888;50.228;7.828;2024-01-06T22:40:38;98746.50;;;7.41;100.00
78590;BME280;67888;50.228;7.828;2024-01-06T22:45:39;98744.22;;;7.60;100.00
78590;BME280;67888;50.228;7.828;2024-01-06T22:50:41;98748.28;;;7.25;100.00
78590;BME280;67888;50.228;7.828;2024-01-06T22:55:41;98749.66;;;7.43;100.00
78590;BME280;67888;50.228;7.828;2024-01-06T23:00:42;98749.91;;;7.41;100.00
78590;BME280;67888;50.228;7.828;2024-01-06T23:05:45;98757.84;;;7.57;100.00
78590;BME280;67888;50.228;7.828;2024-01-06T23:10:48;98762.34;;;7.09;100.00
78590;BME280;67888;50.228;7.828;2024-01-06T23:15:49;98771.88;;;7.35;100.00
78590;BME280;67888;50.228;7.828;2024-01-06T23:20:51;98773.97;;;7.33;100.00
78590;BME280;67888;50.228;7.828;2024-01-06T23:25:51;98774.81;;;7.44;100.00
78590;BME280;67888;50.228;7.828;2024-01-06T23:30:52;98777.34;;;7.29;100.00
78590;BME280;67888;50.228;7.828;2024-01-06T23:35:53;98777.00;;;6.68;100.00
78590;BME280;67888;50.228;7.828;2024-01-06T23:40:53;98784.72;;;6.90;100.00
78590;BME280;67888;50.228;7.828;2024-01-06T23:45:53;98793.94;;;7.02;100.00
78590;BME280;67888;50.228;7.828;2024-01-06T23:50:54;98792.72;;;7.15;100.00
78590;BME280;67888;50.228;7.828;2024-01-06T23:55:54;98803.09;;;7.52;100.00
